createdAt,value
2023-05-27T00:02:03.388Z,10.49
2023-05-27T00:04:34.195Z,10.45
2023-05-27T00:07:05.172Z,10.39
2023-05-27T00:09:35.916Z,10.33
2023-05-27T00:12:07.283Z,10.28
2023-05-27T00:14:38.035Z,10.16
2023-05-27T00:17:08.779Z,10.08
2023-05-27T00:19:39.540Z,9.98
2023-05-27T00:22:10.265Z,9.92
2023-05-27T00:24:40.968Z,9.86
2023-05-27T00:27:12.728Z,9.78
2023-05-27T00:29:43.466Z,9.69
2023-05-27T00:32:14.532Z,9.65
2023-05-27T00:34:43.676Z,9.60
2023-05-27T00:37:14.440Z,9.52
2023-05-27T00:39:45.203Z,9.47
2023-05-27T00:42:16.536Z,9.46
2023-05-27T00:44:47.346Z,9.49
2023-05-27T00:47:18.533Z,9.50
2023-05-27T00:49:49.241Z,9.49
2023-05-27T00:52:19.910Z,9.51
2023-05-27T00:54:51.456Z,9.49
2023-05-27T00:57:22.645Z,9.48
2023-05-27T00:59:54.037Z,9.46
2023-05-27T01:02:24.854Z,9.40
2023-05-27T01:04:55.748Z,9.38
2023-05-27T01:07:33.987Z,9.36
2023-05-27T01:10:11.972Z,9.38
2023-05-27T01:12:50.115Z,9.40
2023-05-27T01:15:21.901Z,9.42
2023-05-27T01:17:57.162Z,9.41
2023-05-27T01:20:29.505Z,9.39
2023-05-27T01:23:00.819Z,9.33
2023-05-27T01:25:33.356Z,9.26
2023-05-27T01:28:04.043Z,9.25
2023-05-27T01:30:34.897Z,9.26
2023-05-27T01:33:09.447Z,9.28
2023-05-27T01:35:45.516Z,9.29
2023-05-27T01:38:19.282Z,9.30
2023-05-27T01:40:51.853Z,9.31
2023-05-27T01:43:23.184Z,9.30
2023-05-27T01:45:54.324Z,9.26
2023-05-27T01:48:25.240Z,9.18
2023-05-27T01:50:56.015Z,9.10
2023-05-27T01:53:26.728Z,9.05
2023-05-27T01:55:57.493Z,8.99
2023-05-27T01:58:28.235Z,8.96
2023-05-27T02:00:58.998Z,8.96
2023-05-27T02:03:30.118Z,8.97
2023-05-27T02:06:00.875Z,8.98
2023-05-27T02:08:31.548Z,8.95
2023-05-27T02:11:02.254Z,8.95
2023-05-27T02:13:32.940Z,8.97
2023-05-27T02:16:03.706Z,8.99
2023-05-27T02:18:34.805Z,8.99
2023-05-27T02:21:04.076Z,8.98
2023-05-27T02:23:34.856Z,8.98
2023-05-27T02:26:05.645Z,8.97
2023-05-27T02:28:36.384Z,8.97
2023-05-27T02:31:07.251Z,8.97
2023-05-27T02:33:38.026Z,8.94
2023-05-27T02:36:09.530Z,8.94
2023-05-27T02:38:40.202Z,8.93
2023-05-27T02:41:10.974Z,8.92
2023-05-27T02:43:41.739Z,8.90
2023-05-27T02:46:12.536Z,8.90
2023-05-27T02:48:43.255Z,8.89
2023-05-27T02:51:14.296Z,8.91
2023-05-27T02:53:43.494Z,8.95
2023-05-27T02:56:14.210Z,8.95
2023-05-27T02:58:44.857Z,8.96
2023-05-27T03:01:15.578Z,8.98
2023-05-27T03:03:46.313Z,9.03
2023-05-27T03:06:17.206Z,9.09
2023-05-27T03:08:47.897Z,9.14
2023-05-27T03:11:18.800Z,9.18
2023-05-27T03:13:49.535Z,9.20
2023-05-27T03:16:20.302Z,9.26
2023-05-27T03:18:50.985Z,9.30
2023-05-27T03:21:21.861Z,9.31
2023-05-27T03:23:52.574Z,9.36
2023-05-27T03:26:23.309Z,9.37
2023-05-27T03:28:53.958Z,9.39
2023-05-27T03:31:24.794Z,9.51
2023-05-27T03:33:55.517Z,9.61
2023-05-27T03:36:26.379Z,9.72
2023-05-27T03:38:58.236Z,9.81
2023-05-27T03:41:29.020Z,9.90
2023-05-27T03:43:59.753Z,10.00
2023-05-27T03:46:30.536Z,10.09
2023-05-27T03:49:01.353Z,10.18
2023-05-27T03:51:32.096Z,10.30
2023-05-27T03:54:02.868Z,10.43
2023-05-27T03:56:33.695Z,10.54
2023-05-27T03:59:04.826Z,10.64
2023-05-27T04:01:35.602Z,10.75
2023-05-27T04:04:06.330Z,10.94
2023-05-27T04:06:37.162Z,11.83
2023-05-27T04:09:07.946Z,13.23
2023-05-27T04:11:38.668Z,14.55
2023-05-27T04:14:09.415Z,15.74
2023-05-27T04:16:38.627Z,16.83
2023-05-27T04:19:09.514Z,17.79
2023-05-27T04:21:40.273Z,18.70
2023-05-27T04:24:11.044Z,19.56
2023-05-27T04:26:41.822Z,20.39
2023-05-27T04:29:12.477Z,21.17
2023-05-27T04:31:43.254Z,21.92
2023-05-27T04:34:13.992Z,22.66
2023-05-27T04:36:45.392Z,23.29
2023-05-27T04:39:16.132Z,23.78
2023-05-27T04:41:46.913Z,24.34
2023-05-27T04:44:17.703Z,24.94
2023-05-27T04:46:48.720Z,25.52
2023-05-27T04:49:19.634Z,26.13
2023-05-27T04:51:50.468Z,26.32
2023-05-27T04:54:21.225Z,25.51
2023-05-27T04:56:52.030Z,25.10
2023-05-27T04:59:22.768Z,25.26
2023-05-27T05:01:53.999Z,25.59
2023-05-27T05:04:24.797Z,25.71
2023-05-27T05:06:55.498Z,26.07
2023-05-27T05:09:26.205Z,26.23
2023-05-27T05:11:56.874Z,26.19
2023-05-27T05:14:27.564Z,26.39
2023-05-27T05:16:58.403Z,26.37
2023-05-27T05:19:29.097Z,26.03
2023-05-27T05:21:59.822Z,25.79
2023-05-27T05:24:30.606Z,25.87
2023-05-27T05:27:01.647Z,26.01
2023-05-27T05:29:32.359Z,25.97
2023-05-27T05:32:03.186Z,25.72
2023-05-27T05:34:34.125Z,25.39
2023-05-27T05:37:05.128Z,24.63
2023-05-27T05:39:35.841Z,24.19
2023-05-27T05:42:07.108Z,23.26
2023-05-27T05:44:37.950Z,22.17
2023-05-27T05:47:08.793Z,21.21
2023-05-27T05:49:39.453Z,20.32
2023-05-27T05:52:10.262Z,19.86
2023-05-27T05:54:41.072Z,19.58
2023-05-27T05:57:12.019Z,19.54
2023-05-27T05:59:42.779Z,19.22
2023-05-27T06:02:13.891Z,18.75
2023-05-27T06:04:45.251Z,18.64
2023-05-27T06:07:16.127Z,18.62
2023-05-27T06:09:47.174Z,18.53
2023-05-27T06:12:18.109Z,18.28
2023-05-27T06:14:48.800Z,17.87
2023-05-27T06:17:17.943Z,17.51
2023-05-27T06:19:48.779Z,17.35
2023-05-27T06:22:17.922Z,17.38
2023-05-27T06:24:48.623Z,17.29
2023-05-27T06:27:19.370Z,17.09
2023-05-27T06:29:48.607Z,16.90
2023-05-27T06:32:19.298Z,16.74
2023-05-27T06:34:50.741Z,16.59
2023-05-27T06:37:21.550Z,16.51
2023-05-27T06:39:52.298Z,16.46
2023-05-27T06:42:21.375Z,16.55
2023-05-27T06:44:52.058Z,16.51
2023-05-27T06:47:22.769Z,16.54
2023-05-27T06:49:53.560Z,16.49
2023-05-27T06:52:22.694Z,16.62
2023-05-27T06:54:53.706Z,16.80
2023-05-27T06:57:24.347Z,16.93
2023-05-27T06:59:53.649Z,16.94
2023-05-27T07:02:24.338Z,16.96
2023-05-27T07:04:55.320Z,17.04
2023-05-27T07:07:27.432Z,17.22
2023-05-27T07:09:58.173Z,17.22
2023-05-27T07:12:27.313Z,17.09
2023-05-27T07:14:58.189Z,17.22
2023-05-27T07:17:28.913Z,17.31
2023-05-27T07:19:59.627Z,17.47
2023-05-27T07:22:30.344Z,17.56
2023-05-27T07:25:04.009Z,17.39
2023-05-27T07:27:34.742Z,17.35
2023-05-27T07:30:08.240Z,17.29
2023-05-27T07:32:38.999Z,17.24
2023-05-27T07:35:09.936Z,17.27
2023-05-27T07:37:39.047Z,17.50
2023-05-27T07:40:12.145Z,17.75
2023-05-27T07:42:42.866Z,17.97
2023-05-27T07:45:13.945Z,18.21
2023-05-27T07:47:44.716Z,18.37
2023-05-27T07:50:13.775Z,18.52
2023-05-27T07:52:44.643Z,18.62
2023-05-27T07:55:15.477Z,18.70
2023-05-27T07:57:46.198Z,18.91
2023-05-27T08:00:15.757Z,19.08
2023-05-27T08:02:46.585Z,19.11
2023-05-27T08:05:17.389Z,19.22
2023-05-27T08:07:46.523Z,19.38
2023-05-27T08:10:17.337Z,19.65
2023-05-27T08:12:48.057Z,19.75
2023-05-27T08:15:18.915Z,19.90
2023-05-27T08:17:49.650Z,19.94
2023-05-27T08:20:21.965Z,19.84
2023-05-27T08:22:52.710Z,19.84
2023-05-27T08:25:23.589Z,20.14
2023-05-27T08:27:55.930Z,20.35
2023-05-27T08:30:26.632Z,20.42
2023-05-27T08:32:57.426Z,20.50
2023-05-27T08:35:28.449Z,20.44
2023-05-27T08:37:59.290Z,20.24
2023-05-27T08:40:30.041Z,20.16
2023-05-27T08:43:00.997Z,20.30
2023-05-27T08:45:31.722Z,20.51
2023-05-27T08:48:00.832Z,20.57
2023-05-27T08:50:31.712Z,20.86
2023-05-27T08:53:04.169Z,21.18
2023-05-27T08:55:43.971Z,21.44
2023-05-27T08:58:15.635Z,21.64
2023-05-27T09:00:49.245Z,21.73
2023-05-27T09:03:19.993Z,21.94
2023-05-27T09:05:50.928Z,21.96
2023-05-27T09:08:23.604Z,21.87
2023-05-27T09:10:57.557Z,21.72
2023-05-27T09:13:32.144Z,21.62
2023-05-27T09:16:04.560Z,21.56
2023-05-27T09:18:36.829Z,21.10
2023-05-27T09:21:07.682Z,20.39
2023-05-27T09:23:40.984Z,19.95
2023-05-27T09:26:12.878Z,19.76
2023-05-27T09:28:43.661Z,19.83
2023-05-27T09:31:14.431Z,19.67
2023-05-27T09:33:45.162Z,19.34
2023-05-27T09:36:14.372Z,19.31
2023-05-27T09:38:46.054Z,19.40
2023-05-27T09:41:24.097Z,19.42
2023-05-27T09:43:57.776Z,19.15
2023-05-27T09:46:29.164Z,19.05
2023-05-27T09:49:00.984Z,18.98
2023-05-27T09:51:32.476Z,19.07
2023-05-27T09:54:04.665Z,19.36
2023-05-27T09:56:36.315Z,19.62
2023-05-27T09:59:07.024Z,19.88
2023-05-27T10:01:39.563Z,19.95
2023-05-27T10:04:10.760Z,19.82
2023-05-27T10:06:41.833Z,19.54
2023-05-27T10:09:12.523Z,19.52
2023-05-27T10:11:42.415Z,19.57
2023-05-27T10:14:13.547Z,19.56
2023-05-27T10:16:53.975Z,19.62
2023-05-27T10:19:25.131Z,19.81
2023-05-27T10:21:56.270Z,20.03
2023-05-27T10:24:48.737Z,20.34
2023-05-27T10:27:19.823Z,20.50
2023-05-27T10:29:59.595Z,20.58
2023-05-27T10:32:31.010Z,20.70
2023-05-27T10:35:02.108Z,20.86
2023-05-27T10:37:36.957Z,20.93
2023-05-27T10:40:10.937Z,20.92
2023-05-27T10:42:42.850Z,21.01
2023-05-27T10:45:13.642Z,21.07
2023-05-27T10:47:47.197Z,21.07
2023-05-27T10:50:18.107Z,21.03
2023-05-27T10:52:51.100Z,21.01
2023-05-27T10:55:22.982Z,20.96
2023-05-27T10:57:53.987Z,20.85
2023-05-27T11:00:27.295Z,20.74
2023-05-27T11:02:58.348Z,20.73
2023-05-27T11:05:31.534Z,20.66
2023-05-27T11:08:03.004Z,20.48
2023-05-27T11:10:33.841Z,20.56
2023-05-27T11:13:04.596Z,20.70
2023-05-27T11:15:35.255Z,20.65
2023-05-27T11:18:04.931Z,20.34
2023-05-27T11:20:39.353Z,19.95
2023-05-27T11:23:10.119Z,19.81
2023-05-27T11:25:45.553Z,19.87
2023-05-27T11:28:19.390Z,20.16
2023-05-27T11:30:53.494Z,20.47
2023-05-27T11:33:37.416Z,20.59
2023-05-27T11:36:12.298Z,20.65
2023-05-27T11:38:56.089Z,20.84
2023-05-27T11:41:28.551Z,20.91
2023-05-27T11:44:00.698Z,20.87
2023-05-27T11:46:38.268Z,20.76
2023-05-27T11:49:11.101Z,20.61
2023-05-27T11:51:43.543Z,20.48
2023-05-27T11:54:20.664Z,20.45
2023-05-27T11:56:52.029Z,20.58
2023-05-27T11:59:24.936Z,20.54
2023-05-27T12:01:55.726Z,20.30
2023-05-27T12:04:26.568Z,20.27
2023-05-27T12:06:57.846Z,20.36
2023-05-27T12:09:30.099Z,20.53
2023-05-27T12:12:00.788Z,20.78
2023-05-27T12:14:31.654Z,21.12
2023-05-27T12:17:02.388Z,21.40
2023-05-27T12:19:33.193Z,21.63
2023-05-27T12:22:04.084Z,21.77
2023-05-27T12:24:34.769Z,21.92
2023-05-27T12:27:05.934Z,22.08
2023-05-27T12:29:36.783Z,22.01
2023-05-27T12:32:07.611Z,21.85
2023-05-27T12:34:38.378Z,21.69
2023-05-27T12:37:10.910Z,21.63
2023-05-27T12:39:43.388Z,21.66
2023-05-27T12:42:14.153Z,21.55
2023-05-27T12:44:44.958Z,21.49
2023-05-27T12:47:15.700Z,21.67
2023-05-27T12:49:46.795Z,21.79
2023-05-27T12:52:17.605Z,21.63
2023-05-27T12:54:48.353Z,21.53
2023-05-27T12:57:19.021Z,21.48
2023-05-27T12:59:49.748Z,21.36
2023-05-27T13:02:20.472Z,21.27
2023-05-27T13:04:51.604Z,21.16
2023-05-27T13:07:24.674Z,21.10
2023-05-27T13:09:55.416Z,20.97
2023-05-27T13:12:26.115Z,20.89
2023-05-27T13:14:58.544Z,20.94
2023-05-27T13:17:29.621Z,20.89
2023-05-27T13:20:00.766Z,20.93
2023-05-27T13:22:31.732Z,21.13
2023-05-27T13:25:02.583Z,21.22
2023-05-27T13:27:33.628Z,21.25
2023-05-27T13:30:04.634Z,21.38
2023-05-27T13:32:35.347Z,21.45
2023-05-27T13:35:07.179Z,21.38
2023-05-27T13:37:37.852Z,21.45
2023-05-27T13:40:10.194Z,21.62
2023-05-27T13:42:41.778Z,21.85
2023-05-27T13:45:12.981Z,22.05
2023-05-27T13:47:44.305Z,22.05
2023-05-27T13:50:15.118Z,22.14
2023-05-27T13:52:45.957Z,22.15
2023-05-27T13:55:22.811Z,22.04
2023-05-27T13:57:53.645Z,21.94
2023-05-27T14:00:24.626Z,21.84
2023-05-27T14:02:55.790Z,21.54
2023-05-27T14:05:26.995Z,21.36
2023-05-27T14:07:57.665Z,21.30
2023-05-27T14:10:28.321Z,21.35
2023-05-27T14:12:59.098Z,21.41
2023-05-27T14:15:30.196Z,21.58
2023-05-27T14:18:00.950Z,21.77
2023-05-27T14:20:31.978Z,21.94
2023-05-27T14:23:02.737Z,22.00
2023-05-27T14:25:33.485Z,21.86
2023-05-27T14:28:04.279Z,21.58
2023-05-27T14:30:35.083Z,21.36
2023-05-27T14:33:06.294Z,21.18
2023-05-27T14:35:37.627Z,21.05
2023-05-27T14:38:09.058Z,21.07
2023-05-27T14:40:40.161Z,21.06
2023-05-27T14:43:10.866Z,21.02
2023-05-27T14:45:43.059Z,20.99
2023-05-27T14:48:13.735Z,20.82
2023-05-27T14:50:44.850Z,20.75
2023-05-27T14:53:15.631Z,20.72
2023-05-27T14:55:46.541Z,20.74
2023-05-27T14:58:17.651Z,20.82
2023-05-27T15:00:48.671Z,20.70
2023-05-27T15:03:19.628Z,20.62
2023-05-27T15:05:50.686Z,20.68
2023-05-27T15:08:21.587Z,20.69
2023-05-27T15:10:52.789Z,20.76
2023-05-27T15:13:23.530Z,20.87
2023-05-27T15:15:54.574Z,20.98
2023-05-27T15:18:25.487Z,20.92
2023-05-27T15:20:56.341Z,20.89
2023-05-27T15:23:27.010Z,20.84
2023-05-27T15:25:56.122Z,20.77
2023-05-27T15:28:26.854Z,20.77
2023-05-27T15:30:57.581Z,20.63
2023-05-27T15:33:28.285Z,20.57
2023-05-27T15:35:59.260Z,20.57
2023-05-27T15:38:30.052Z,20.56
2023-05-27T15:41:01.357Z,20.48
2023-05-27T15:43:32.168Z,20.46
2023-05-27T15:46:04.949Z,20.43
2023-05-27T15:48:36.137Z,20.49
2023-05-27T15:51:05.274Z,20.51
2023-05-27T15:53:36.048Z,20.56
2023-05-27T15:56:07.084Z,20.56
2023-05-27T15:58:38.303Z,20.48
2023-05-27T16:01:09.417Z,20.41
2023-05-27T16:03:40.154Z,20.40
2023-05-27T16:06:12.431Z,20.34
2023-05-27T16:08:43.314Z,20.24
2023-05-27T16:11:12.991Z,20.21
2023-05-27T16:13:43.839Z,20.22
2023-05-27T16:16:13.384Z,20.20
2023-05-27T16:18:44.105Z,20.13
2023-05-27T16:21:14.942Z,20.12
2023-05-27T16:23:50.387Z,20.13
2023-05-27T16:26:27.001Z,20.12
2023-05-27T16:28:57.684Z,20.07
2023-05-27T16:31:26.984Z,20.07
2023-05-27T16:33:57.752Z,20.10
2023-05-27T16:36:29.229Z,20.09
2023-05-27T16:38:59.998Z,20.06
2023-05-27T16:41:30.832Z,20.05
2023-05-27T16:44:01.618Z,20.04
2023-05-27T16:46:32.516Z,20.02
2023-05-27T16:49:03.467Z,20.02
2023-05-27T16:51:34.248Z,19.93
2023-05-27T16:54:05.317Z,19.89
2023-05-27T16:56:36.069Z,19.87
2023-05-27T16:59:07.279Z,19.89
2023-05-27T17:01:38.328Z,19.87
2023-05-27T17:04:09.414Z,19.88
2023-05-27T17:06:40.329Z,19.96
2023-05-27T17:09:11.007Z,20.00
2023-05-27T17:11:40.213Z,20.01
2023-05-27T17:14:10.983Z,19.97
2023-05-27T17:16:41.807Z,20.00
2023-05-27T17:19:12.880Z,20.04
2023-05-27T17:21:43.642Z,20.05
2023-05-27T17:24:14.566Z,20.10
2023-05-27T17:26:45.548Z,20.07
2023-05-27T17:29:16.509Z,20.03
2023-05-27T17:31:47.720Z,19.99
2023-05-27T17:34:18.810Z,19.93
2023-05-27T17:36:50.731Z,19.92
2023-05-27T17:39:22.489Z,19.95
2023-05-27T17:41:54.168Z,19.97
2023-05-27T17:44:25.278Z,19.89
2023-05-27T17:46:57.058Z,19.85
2023-05-27T17:49:28.027Z,19.89
2023-05-27T17:52:02.234Z,19.88
2023-05-27T17:54:36.338Z,19.84
2023-05-27T17:57:07.540Z,19.77
2023-05-27T17:59:38.336Z,19.63
2023-05-27T18:02:09.164Z,19.45
2023-05-27T18:04:40.722Z,19.25
2023-05-27T18:07:12.371Z,19.07
2023-05-27T18:09:43.183Z,18.88
2023-05-27T18:12:14.258Z,18.74
2023-05-27T18:14:45.344Z,18.64
2023-05-27T18:17:16.782Z,18.54
2023-05-27T18:19:45.919Z,18.43
2023-05-27T18:22:16.783Z,18.32
2023-05-27T18:24:45.931Z,18.22
2023-05-27T18:27:17.795Z,18.08
2023-05-27T18:29:49.255Z,17.98
2023-05-27T18:32:21.945Z,17.92
2023-05-27T18:34:52.942Z,17.83
2023-05-27T18:37:23.994Z,17.76
2023-05-27T18:39:55.000Z,17.65
2023-05-27T18:42:26.160Z,17.54
2023-05-27T18:44:57.180Z,17.43
2023-05-27T18:47:28.022Z,17.32
2023-05-27T18:50:00.123Z,17.20
2023-05-27T18:52:31.210Z,17.10
2023-05-27T18:55:02.464Z,16.98
2023-05-27T18:57:34.353Z,16.90
2023-05-27T19:00:08.078Z,16.83
2023-05-27T19:02:39.920Z,16.76
2023-05-27T19:05:13.223Z,16.69
2023-05-27T19:07:44.285Z,16.62
2023-05-27T19:10:15.303Z,16.55
2023-05-27T19:12:46.365Z,16.45
2023-05-27T19:15:17.520Z,16.36
2023-05-27T19:17:49.299Z,16.25
2023-05-27T19:20:20.885Z,16.19
2023-05-27T19:22:51.989Z,16.10
2023-05-27T19:25:23.667Z,16.03
2023-05-27T19:27:55.476Z,15.97
2023-05-27T19:30:29.408Z,15.89
2023-05-27T19:33:00.586Z,15.79
2023-05-27T19:35:30.200Z,15.72
2023-05-27T19:38:01.585Z,15.63
2023-05-27T19:40:35.067Z,15.53
2023-05-27T19:43:05.785Z,15.46
2023-05-27T19:45:36.817Z,15.39
2023-05-27T19:48:07.785Z,15.31
2023-05-27T19:50:42.251Z,15.21
2023-05-27T19:53:13.501Z,15.13
2023-05-27T19:55:45.743Z,15.06
2023-05-27T19:58:17.500Z,14.99
2023-05-27T20:00:49.547Z,14.92
2023-05-27T20:03:21.419Z,14.87
2023-05-27T20:05:52.560Z,14.84
2023-05-27T20:08:23.793Z,14.80
2023-05-27T20:10:54.936Z,14.77
2023-05-27T20:13:26.080Z,14.65
2023-05-27T20:15:58.360Z,14.58
2023-05-27T20:18:30.117Z,14.50
2023-05-27T20:21:01.304Z,14.43
2023-05-27T20:23:32.079Z,14.37
2023-05-27T20:26:01.396Z,14.34
2023-05-27T20:28:32.824Z,14.30
2023-05-27T20:31:03.684Z,14.25
2023-05-27T20:33:34.597Z,14.18
2023-05-27T20:36:03.988Z,14.11
2023-05-27T20:38:34.726Z,14.05
2023-05-27T20:41:05.943Z,14.00
2023-05-27T20:43:37.854Z,13.94
2023-05-27T20:46:08.703Z,13.86
2023-05-27T20:48:37.884Z,13.80
2023-05-27T20:51:08.799Z,13.71
2023-05-27T20:53:37.968Z,13.62
2023-05-27T20:56:08.881Z,13.53
2023-05-27T20:58:38.084Z,13.43
2023-05-27T21:01:09.840Z,13.39
2023-05-27T21:03:40.654Z,13.37
2023-05-27T21:06:11.417Z,13.33
2023-05-27T21:08:42.237Z,13.31
2023-05-27T21:11:13.243Z,13.29
2023-05-27T21:13:46.237Z,13.20
2023-05-27T21:16:19.155Z,13.15
2023-05-27T21:18:50.095Z,13.12
2023-05-27T21:21:21.192Z,13.06
2023-05-27T21:23:53.438Z,12.98
2023-05-27T21:26:24.169Z,12.88
2023-05-27T21:28:55.279Z,12.82
2023-05-27T21:31:24.565Z,12.82
2023-05-27T21:33:55.313Z,12.82
2023-05-27T21:36:26.057Z,12.80
2023-05-27T21:38:56.889Z,12.73
2023-05-27T21:41:27.700Z,12.67
2023-05-27T21:44:25.623Z,12.60
2023-05-27T21:46:56.360Z,12.55
2023-05-27T21:49:28.628Z,12.56
2023-05-27T21:52:00.280Z,12.50
2023-05-27T21:54:31.100Z,12.47
2023-05-27T21:57:02.029Z,12.45
2023-05-27T21:59:33.027Z,12.42
2023-05-27T22:02:04.668Z,12.38
2023-05-27T22:04:35.612Z,12.34
2023-05-27T22:07:06.955Z,12.31
2023-05-27T22:09:40.298Z,12.27
2023-05-27T22:12:11.253Z,12.25
2023-05-27T22:14:41.973Z,12.22
2023-05-27T22:17:12.680Z,12.19
2023-05-27T22:19:43.455Z,12.12
2023-05-27T22:22:14.192Z,12.07
2023-05-27T22:24:44.999Z,12.02
2023-05-27T22:27:14.375Z,11.99
2023-05-27T22:29:45.197Z,11.92
2023-05-27T22:32:16.007Z,11.82
2023-05-27T22:34:45.257Z,11.79
2023-05-27T22:37:15.931Z,11.76
2023-05-27T22:39:46.670Z,11.74
2023-05-27T22:42:17.468Z,11.69
2023-05-27T22:44:48.395Z,11.66
2023-05-27T22:47:19.155Z,11.62
2023-05-27T22:49:49.851Z,11.60
2023-05-27T22:52:21.779Z,11.55
2023-05-27T22:54:52.648Z,11.50
2023-05-27T22:57:23.353Z,11.46
2023-05-27T22:59:54.084Z,11.42
2023-05-27T23:02:24.893Z,11.38
2023-05-27T23:04:54.238Z,11.28
2023-05-27T23:07:24.975Z,11.18
2023-05-27T23:09:55.773Z,11.12
2023-05-27T23:12:26.501Z,11.10
2023-05-27T23:14:57.301Z,11.07
2023-05-27T23:17:28.020Z,11.04
2023-05-27T23:19:58.763Z,11.03
2023-05-27T23:22:29.461Z,11.02
2023-05-27T23:25:00.206Z,11.00
2023-05-27T23:27:30.851Z,10.97
2023-05-27T23:30:01.587Z,10.91
2023-05-27T23:32:32.858Z,10.85
2023-05-27T23:35:03.823Z,10.84
2023-05-27T23:37:34.472Z,10.82
2023-05-27T23:40:05.914Z,10.80
2023-05-27T23:42:36.562Z,10.76
2023-05-27T23:45:09.181Z,10.72
2023-05-27T23:47:39.923Z,10.67
2023-05-27T23:50:11.326Z,10.63
2023-05-27T23:52:42.010Z,10.59
2023-05-27T23:55:19.602Z,10.55
2023-05-27T23:57:50.336Z,10.51
